Time;durP1;ratioP1;P1;durP2;ratioP2;P2;SDS_P1;SDS_P2;PMS_P1;PMS_P2;Temp;Humidity;BMP_temperature;BMP_pressure;BME280_temperature;BME280_humidity;BME280_pressure;Samples;Min_cycle;Max_cycle;Signal;HPM_P1;HPM_P2
2022/04/14 00:00:19;;;;;;;14.45;7.70;;;;;;;;;;4992351;28;20023;-70
2022/04/14 00:02:44;;;;;;;16.85;8.55;;;;;;;;;;4992108;28;20099;-70
2022/04/14 00:05:09;;;;;;;16.98;8.85;;;;;;;;;;4991181;28;20023;-70
2022/04/14 00:07:36;;;;;;;16.67;8.90;;;;;;;;;;4993658;28;20054;-70
2022/04/14 00:10:02;;;;;;;16.10;7.95;;;;;;;;;;4996387;28;20102;-70
2022/04/14 00:12:27;;;;;;;18.08;8.43;;;;;;;;;;4996096;28;20105;-70
2022/04/14 00:14:52;;;;;;;18.48;9.63;;;;;;;;;;4996063;28;20019;-70
2022/04/14 00:17:17;;;;;;;16.00;8.50;;;;;;;;;;4996145;28;20497;-71
2022/04/14 00:19:43;;;;;;;14.43;8.30;;;;;;;;;;4994928;28;20045;-70
2022/04/14 00:22:08;;;;;;;16.73;8.35;;;;;;;;;;4996067;28;20291;-70
2022/04/14 00:24:33;;;;;;;14.18;7.63;;;;;;;;;;4995806;28;20024;-70
2022/04/14 00:26:59;;;;;;;15.10;7.75;;;;;;;;;;4995967;28;20046;-70
2022/04/14 00:29:24;;;;;;;15.75;8.27;;;;;;;;;;4994619;28;20459;-69
2022/04/14 00:31:49;;;;;;;14.00;7.88;;;;;;;;;;4994509;28;20030;-70
2022/04/14 00:34:14;;;;;;;19.20;8.43;;;;;;;;;;4994387;28;20470;-70
2022/04/14 00:36:40;;;;;;;17.88;8.40;;;;;;;;;;4995743;28;20446;-69
2022/04/14 00:39:05;;;;;;;14.48;8.02;;;;;;;;;;4994531;28;20477;-69
2022/04/14 00:41:30;;;;;;;19.75;8.40;;;;;;;;;;4995777;28;20014;-70
2022/04/14 00:43:55;;;;;;;15.10;8.15;;;;;;;;;;4995461;28;20018;-70
2022/04/14 00:46:21;;;;;;;14.82;7.70;;;;;;;;;;4995707;28;20019;-69
2022/04/14 00:48:47;;;;;;;15.82;8.15;;;;;;;;;;4995694;28;20018;-69
2022/04/14 00:51:12;;;;;;;15.57;7.80;;;;;;;;;;4994307;28;20473;-70
2022/04/14 00:53:39;;;;;;;17.83;8.32;;;;;;;;;;4995337;28;20555;-69
2022/04/14 00:56:05;;;;;;;15.68;8.43;;;;;;;;;;4994011;28;20125;-70
2022/04/14 00:58:30;;;;;;;14.63;8.35;;;;;;;;;;4995378;28;20053;-69
2022/04/14 01:00:55;;;;;;;16.05;8.45;;;;;;;;;;4995429;28;20138;-69
2022/04/14 01:03:21;;;;;;;15.63;8.32;;;;;;;;;;4995387;28;20026;-69
2022/04/14 01:05:47;;;;;;;18.23;8.80;;;;;;;;;;4995264;28;20508;-69
2022/04/14 01:08:17;;;;;;;14.20;7.95;;;;;;;;;;4995235;28;20014;-71
2022/04/14 01:10:43;;;;;;;15.23;8.60;;;;;;;;;;4993860;28;20022;-69
2022/04/14 01:13:09;;;;;;;16.85;7.70;;;;;;;;;;4983554;23;20050;-77
2022/04/14 01:15:35;;;;;;;14.98;7.45;;;;;;;;;;4975790;28;20023;-76
2022/04/14 01:18:00;;;;;;;17.90;8.70;;;;;;;;;;4976080;28;20027;-75
2022/04/14 01:20:25;;;;;;;17.52;8.13;;;;;;;;;;4973561;28;20057;-76
2022/04/14 01:22:57;;;;;;;14.98;8.35;;;;;;;;;;4975504;28;20489;-77
2022/04/14 01:25:23;;;;;;;12.32;8.02;;;;;;;;;;4975794;28;20023;-76
2022/04/14 01:27:50;;;;;;;17.70;8.15;;;;;;;;;;4975726;28;20034;-76
2022/04/14 01:30:15;;;;;;;18.52;8.48;;;;;;;;;;4975897;28;20027;-77
2022/04/14 01:32:40;;;;;;;17.05;8.63;;;;;;;;;;4975472;28;20030;-76
2022/04/14 01:35:06;;;;;;;15.48;7.95;;;;;;;;;;4974352;28;20038;-76
2022/04/14 01:37:31;;;;;;;17.70;8.20;;;;;;;;;;4975490;28;20026;-75
2022/04/14 01:39:56;;;;;;;12.50;7.55;;;;;;;;;;4975475;28;20018;-76
2022/04/14 01:42:21;;;;;;;15.85;8.13;;;;;;;;;;4975277;28;20045;-77
2022/04/14 01:44:48;;;;;;;14.82;7.78;;;;;;;;;;4975161;28;20115;-77
2022/04/14 01:47:13;;;;;;;18.38;9.85;;;;;;;;;;4973971;28;20027;-76
2022/04/14 01:49:39;;;;;;;17.55;8.82;;;;;;;;;;4975277;28;20096;-76
2022/04/14 01:52:04;;;;;;;20.80;9.23;;;;;;;;;;4975097;28;20259;-76
2022/04/14 01:54:29;;;;;;;16.50;8.52;;;;;;;;;;4973458;28;20756;-74
2022/04/14 01:56:54;;;;;;;25.00;8.77;;;;;;;;;;4974917;28;20026;-75
2022/04/14 01:59:20;;;;;;;16.08;8.65;;;;;;;;;;4973708;28;20494;-75
2022/04/14 02:01:45;;;;;;;14.27;8.18;;;;;;;;;;4974964;28;20422;-76
2022/04/14 02:04:10;;;;;;;20.20;8.70;;;;;;;;;;4974740;28;20474;-76
2022/04/14 02:06:35;;;;;;;16.08;8.40;;;;;;;;;;4974793;28;20023;-76
2022/04/14 02:09:00;;;;;;;14.73;8.18;;;;;;;;;;4974896;28;20022;-76
2022/04/14 02:11:26;;;;;;;15.07;8.03;;;;;;;;;;4974791;28;20023;-76
2022/04/14 02:13:51;;;;;;;24.17;8.43;;;;;;;;;;4973093;28;20303;-75
2022/04/14 02:16:16;;;;;;;18.00;8.32;;;;;;;;;;4974506;28;20054;-75
2022/04/14 02:18:42;;;;;;;16.73;8.43;;;;;;;;;;4974694;28;20031;-75
2022/04/14 02:21:07;;;;;;;20.52;8.68;;;;;;;;;;4974558;28;20023;-76
2022/04/14 02:23:32;;;;;;;17.42;8.63;;;;;;;;;;4972965;28;20022;-75
2022/04/14 02:25:58;;;;;;;15.30;8.68;;;;;;;;;;4974391;28;20033;-77
2022/04/14 02:28:23;;;;;;;21.05;9.75;;;;;;;;;;4974318;28;20498;-75
2022/04/14 02:30:48;;;;;;;19.20;8.97;;;;;;;;;;4974426;28;20129;-76
2022/04/14 02:33:13;;;;;;;18.90;8.93;;;;;;;;;;4974564;28;20269;-76
2022/04/14 02:35:39;;;;;;;17.15;9.05;;;;;;;;;;4974272;28;20033;-76
2022/04/14 02:38:04;;;;;;;19.67;8.05;;;;;;;;;;4974196;28;20027;-76
2022/04/14 02:40:29;;;;;;;22.15;9.02;;;;;;;;;;4974232;28;20042;-76
2022/04/14 02:42:56;;;;;;;21.00;9.07;;;;;;;;;;4973938;28;20023;-75
2022/04/14 02:45:21;;;;;;;18.85;8.65;;;;;;;;;;4974073;28;20022;-75
2022/04/14 02:47:47;;;;;;;16.20;8.88;;;;;;;;;;4974065;28;20019;-75
2022/04/14 02:50:12;;;;;;;19.20;9.25;;;;;;;;;;4974024;28;20118;-77
2022/04/14 02:52:38;;;;;;;18.85;9.40;;;;;;;;;;4973794;28;20700;-75
2022/04/14 02:55:03;;;;;;;21.08;10.40;;;;;;;;;;4973720;28;20025;-75
2022/04/14 02:57:30;;;;;;;15.82;9.43;;;;;;;;;;4972679;28;20458;-75
2022/04/14 02:59:55;;;;;;;20.02;9.30;;;;;;;;;;4973941;28;20038;-76
2022/04/14 03:02:20;;;;;;;21.50;10.63;;;;;;;;;;4973714;28;20462;-78
2022/04/14 03:04:45;;;;;;;20.23;10.73;;;;;;;;;;4972310;28;20295;-76
2022/04/14 03:07:11;;;;;;;21.60;10.35;;;;;;;;;;4973656;28;20248;-75
2022/04/14 03:09:36;;;;;;;25.08;12.65;;;;;;;;;;4973608;28;20070;-78
2022/04/14 03:12:01;;;;;;;23.10;11.60;;;;;;;;;;4973458;28;20439;-75
2022/04/14 03:14:26;;;;;;;22.58;12.13;;;;;;;;;;4971820;28;20300;-75
2022/04/14 03:16:51;;;;;;;26.13;11.98;;;;;;;;;;4973495;28;20011;-76
2022/04/14 03:19:17;;;;;;;23.45;13.18;;;;;;;;;;4973262;28;20019;-75
2022/04/14 03:21:46;;;;;;;20.05;12.52;;;;;;;;;;4973278;28;20654;-75
2022/04/14 03:24:12;;;;;;;28.00;13.90;;;;;;;;;;4973122;28;20023;-75
2022/04/14 03:26:37;;;;;;;21.60;12.73;;;;;;;;;;4972054;28;20081;-76
2022/04/14 03:29:02;;;;;;;28.80;13.63;;;;;;;;;;4973291;28;20023;-76
2022/04/14 03:31:27;;;;;;;28.20;13.65;;;;;;;;;;4973181;28;20299;-74
2022/04/14 03:33:52;;;;;;;22.80;13.13;;;;;;;;;;4972887;28;20019;-77
2022/04/14 03:36:18;;;;;;;23.52;12.82;;;;;;;;;;4973154;28;20046;-76
2022/04/14 03:38:43;;;;;;;23.50;13.90;;;;;;;;;;4973108;28;20428;-75
2022/04/14 03:41:09;;;;;;;23.95;12.75;;;;;;;;;;4973173;28;20034;-77
2022/04/14 03:43:34;;;;;;;19.88;12.77;;;;;;;;;;4972412;28;20023;-77
2022/04/14 03:46:00;;;;;;;25.67;13.25;;;;;;;;;;4973067;28;20035;-76
2022/04/14 03:48:25;;;;;;;26.27;13.65;;;;;;;;;;4972894;28;20029;-76
2022/04/14 03:50:50;;;;;;;23.83;12.68;;;;;;;;;;4971714;28;20378;-76
2022/04/14 03:53:17;;;;;;;21.02;11.90;;;;;;;;;;4972660;28;20037;-76
2022/04/14 03:55:42;;;;;;;23.65;13.20;;;;;;;;;;4972907;28;20089;-75
2022/04/14 03:58:07;;;;;;;28.17;16.60;;;;;;;;;;4972863;28;20471;-76
2022/04/14 04:00:32;;;;;;;24.43;12.67;;;;;;;;;;4972871;28;20046;-75
2022/04/14 04:02:58;;;;;;;26.63;13.65;;;;;;;;;;4972611;28;20720;-76
2022/04/14 04:05:23;;;;;;;20.80;12.20;;;;;;;;;;4972767;28;20019;-77
2022/04/14 04:07:48;;;;;;;24.03;11.87;;;;;;;;;;4971542;28;20359;-75
2022/04/14 04:10:13;;;;;;;19.10;12.02;;;;;;;;;;4972853;28;20264;-74
2022/04/14 04:12:39;;;;;;;23.80;11.63;;;;;;;;;;4972552;28;20031;-75
2022/04/14 04:15:04;;;;;;;21.40;11.48;;;;;;;;;;4972562;28;20039;-75
2022/04/14 04:17:29;;;;;;;20.30;11.10;;;;;;;;;;4971300;28;20154;-75
2022/04/14 04:19:55;;;;;;;18.33;10.70;;;;;;;;;;4972594;28;20022;-75
2022/04/14 04:22:20;;;;;;;23.95;11.20;;;;;;;;;;4972639;28;20101;-76
2022/04/14 04:24:45;;;;;;;20.35;11.30;;;;;;;;;;4972433;28;20015;-76
2022/04/14 04:27:11;;;;;;;19.63;9.73;;;;;;;;;;4972576;28;20023;-75
2022/04/14 04:29:36;;;;;;;21.58;10.50;;;;;;;;;;4971052;28;20019;-76
2022/04/14 04:32:01;;;;;;;15.70;10.40;;;;;;;;;;4972442;28;20093;-76
2022/04/14 04:34:27;;;;;;;17.55;10.02;;;;;;;;;;4972183;28;20019;-76
2022/04/14 04:36:52;;;;;;;18.20;9.80;;;;;;;;;;4972426;28;20029;-77
2022/04/14 04:39:17;;;;;;;21.67;10.00;;;;;;;;;;4971203;28;20121;-76
2022/04/14 04:41:43;;;;;;;18.95;10.70;;;;;;;;;;4972406;28;20038;-76
2022/04/14 04:44:09;;;;;;;19.38;10.50;;;;;;;;;;4972163;28;20055;-75
2022/04/14 04:46:35;;;;;;;16.45;9.95;;;;;;;;;;4972394;28;20106;-75
2022/04/14 04:49:00;;;;;;;22.60;10.35;;;;;;;;;;4972122;28;20442;-76
2022/04/14 04:51:25;;;;;;;16.48;9.80;;;;;;;;;;4972311;28;20101;-77
2022/04/14 04:53:51;;;;;;;17.40;9.40;;;;;;;;;;4972090;28;20022;-76
2022/04/14 04:56:18;;;;;;;16.33;9.15;;;;;;;;;;4974317;28;20471;-76
2022/04/14 04:58:43;;;;;;;21.75;10.43;;;;;;;;;;4975404;28;20479;-76
2022/04/14 05:01:08;;;;;;;18.63;10.00;;;;;;;;;;4975739;28;20053;-77
2022/04/14 05:03:33;;;;;;;17.25;9.15;;;;;;;;;;4975115;28;20115;-76
2022/04/14 05:05:59;;;;;;;20.77;9.13;;;;;;;;;;4973963;28;20384;-77
2022/04/14 05:08:24;;;;;;;17.60;9.30;;;;;;;;;;4974112;28;20018;-76
2022/04/14 05:10:49;;;;;;;14.82;8.80;;;;;;;;;;4975482;28;20112;-77
2022/04/14 05:13:18;;;;;;;16.92;8.75;;;;;;;;;;4973521;28;20122;-76
2022/04/14 05:15:43;;;;;;;14.27;8.75;;;;;;;;;;4973959;28;20477;-75
2022/04/14 05:18:08;;;;;;;16.85;9.00;;;;;;;;;;4975088;28;20018;-75
2022/04/14 05:20:35;;;;;;;16.23;8.88;;;;;;;;;;4975087;28;20034;-75
2022/04/14 05:23:00;;;;;;;15.80;8.85;;;;;;;;;;4974839;28;20715;-76
2022/04/14 05:25:25;;;;;;;13.48;8.65;;;;;;;;;;4975205;28;20031;-78
2022/04/14 05:27:50;;;;;;;21.67;9.15;;;;;;;;;;4974774;28;20047;-77
2022/04/14 05:30:16;;;;;;;16.10;8.70;;;;;;;;;;4975000;28;20059;-77
2022/04/14 05:32:41;;;;;;;16.60;9.10;;;;;;;;;;4973246;28;20664;-77
2022/04/14 05:35:10;;;;;;;15.43;8.40;;;;;;;;;;4973919;28;20030;-77
2022/04/14 05:37:35;;;;;;;13.27;8.25;;;;;;;;;;4974927;28;20050;-77
2022/04/14 05:40:02;;;;;;;13.70;7.78;;;;;;;;;;4974938;28;20065;-77
2022/04/14 05:42:27;;;;;;;14.98;9.23;;;;;;;;;;4974581;28;20023;-75
2022/04/14 05:44:52;;;;;;;13.50;8.30;;;;;;;;;;4973180;28;20031;-76
2022/04/14 05:47:17;;;;;;;16.63;8.00;;;;;;;;;;4974553;28;20023;-76
2022/04/14 05:49:42;;;;;;;14.27;8.43;;;;;;;;;;4973612;28;20076;-77
2022/04/14 05:52:08;;;;;;;15.57;8.27;;;;;;;;;;4974478;28;20065;-76
2022/04/14 05:54:35;;;;;;;15.55;7.72;;;;;;;;;;4973002;28;20736;-77
2022/04/14 05:57:00;;;;;;;16.88;9.13;;;;;;;;;;4973282;28;20073;-78
2022/04/14 05:59:25;;;;;;;15.93;8.05;;;;;;;;;;4974484;28;20497;-77
2022/04/14 06:01:51;;;;;;;13.83;7.43;;;;;;;;;;4974391;28;20018;-77
2022/04/14 06:04:16;;;;;;;22.10;8.90;;;;;;;;;;4974361;28;20625;-76
2022/04/14 06:06:41;;;;;;;11.93;7.45;;;;;;;;;;4974035;28;20478;-77
2022/04/14 06:09:06;;;;;;;11.95;7.43;;;;;;;;;;4974472;28;20464;-77
2022/04/14 06:11:31;;;;;;;13.88;7.75;;;;;;;;;;4972651;28;20104;-77
2022/04/14 06:13:57;;;;;;;17.38;6.93;;;;;;;;;;4974470;28;20045;-77
2022/04/14 06:16:22;;;;;;;12.40;7.47;;;;;;;;;;4974210;28;20415;-76
2022/04/14 06:18:47;;;;;;;16.75;6.80;;;;;;;;;;4972614;28;20512;-76
2022/04/14 06:21:12;;;;;;;11.80;6.68;;;;;;;;;;4972751;28;20021;-77
2022/04/14 06:23:38;;;;;;;14.68;7.97;;;;;;;;;;4973904;28;20023;-76
2022/04/14 06:26:04;;;;;;;19.13;8.43;;;;;;;;;;4972539;28;20466;-78
2022/04/14 06:28:29;;;;;;;20.40;11.27;;;;;;;;;;4973750;28;20058;-77
2022/04/14 06:30:54;;;;;;;14.43;6.95;;;;;;;;;;4973932;28;20154;-78
2022/04/14 06:33:20;;;;;;;15.70;7.53;;;;;;;;;;4972230;28;20061;-77
2022/04/14 06:35:46;;;;;;;14.60;6.60;;;;;;;;;;4973780;28;20030;-77
2022/04/14 06:38:11;;;;;;;11.82;6.97;;;;;;;;;;4972526;28;20462;-76
2022/04/14 06:40:36;;;;;;;13.82;7.80;;;;;;;;;;4972560;28;20035;-76
2022/04/14 06:43:02;;;;;;;12.18;6.65;;;;;;;;;;4973318;28;20014;-76
2022/04/14 06:45:27;;;;;;;16.80;6.97;;;;;;;;;;4973767;28;20019;-76
2022/04/14 06:47:52;;;;;;;11.90;6.63;;;;;;;;;;4972124;28;20505;-76
2022/04/14 06:50:18;;;;;;;14.52;6.38;;;;;;;;;;4973519;28;20034;-76
2022/04/14 06:52:43;;;;;;;12.98;5.88;;;;;;;;;;4972136;28;20049;-75
2022/04/14 06:55:09;;;;;;;12.95;7.30;;;;;;;;;;4973574;28;20030;-75
2022/04/14 06:57:34;;;;;;;22.48;7.13;;;;;;;;;;4973471;28;20029;-78
2022/04/14 06:59:59;;;;;;;12.52;6.05;;;;;;;;;;4973524;28;20472;-76
2022/04/14 07:02:25;;;;;;;18.25;7.35;;;;;;;;;;4972008;28;20015;-76
2022/04/14 07:04:50;;;;;;;14.73;6.55;;;;;;;;;;4971859;28;20375;-76
2022/04/14 07:07:15;;;;;;;15.50;6.45;;;;;;;;;;4973566;28;20038;-77
2022/04/14 07:09:40;;;;;;;15.00;6.63;;;;;;;;;;4973292;28;20011;-76
2022/04/14 07:12:06;;;;;;;12.02;6.07;;;;;;;;;;4971949;28;20252;-76
2022/04/14 07:14:32;;;;;;;12.88;5.97;;;;;;;;;;5001359;23;20046;-85
2022/04/14 07:16:57;;;;;;;15.93;6.45;;;;;;;;;;4991459;28;20026;-84
2022/04/14 07:19:23;;;;;;;13.15;6.70;;;;;;;;;;4993255;28;20019;-86
2022/04/14 07:21:48;;;;;;;11.68;5.93;;;;;;;;;;4992927;28;20494;-86
2022/04/14 07:24:14;;;;;;;10.75;6.30;;;;;;;;;;5004564;28;20037;-86
2022/04/14 07:26:39;;;;;;;11.23;6.18;;;;;;;;;;5012687;28;20029;-85
2022/04/14 07:29:13;;;;;;;12.45;6.32;;;;;;;;;;5012489;28;20022;-85
2022/04/14 07:31:41;;;;;;;12.57;5.97;;;;;;;;;;5012861;28;20044;-86
2022/04/14 07:34:08;;;;;;;14.10;6.13;;;;;;;;;;5010583;28;20030;-86
2022/04/14 07:36:34;;;;;;;14.32;6.15;;;;;;;;;;5010751;28;20057;-85
2022/04/14 07:39:00;;;;;;;11.05;5.47;;;;;;;;;;5010728;28;20072;-84
2022/04/14 07:41:26;;;;;;;12.38;5.60;;;;;;;;;;5011348;28;20021;-85
2022/04/14 07:43:52;;;;;;;10.98;5.53;;;;;;;;;;5010365;28;20485;-85
2022/04/14 07:46:17;;;;;;;11.00;6.03;;;;;;;;;;5011074;28;20033;-85
2022/04/14 07:48:42;;;;;;;13.02;6.30;;;;;;;;;;5010564;28;20030;-85
2022/04/14 07:51:07;;;;;;;13.45;5.82;;;;;;;;;;5010276;28;20017;-85
2022/04/14 07:53:33;;;;;;;9.40;5.38;;;;;;;;;;5014340;28;20029;-87
2022/04/14 07:55:58;;;;;;;10.73;5.03;;;;;;;;;;5010605;28;20029;-85
2022/04/14 07:58:23;;;;;;;10.32;5.30;;;;;;;;;;5010519;28;20210;-85
2022/04/14 08:00:51;;;;;;;8.75;5.68;;;;;;;;;;5010441;28;20022;-85
2022/04/14 08:03:19;;;;;;;10.90;5.88;;;;;;;;;;5010725;28;20029;-85
2022/04/14 08:05:46;;;;;;;9.80;5.13;;;;;;;;;;5012283;28;20040;-85
2022/04/14 08:08:13;;;;;;;10.95;5.63;;;;;;;;;;5010686;28;20025;-85
2022/04/14 08:10:39;;;;;;;10.13;5.07;;;;;;;;;;5012262;28;20022;-86
2022/04/14 08:13:04;;;;;;;8.95;5.38;;;;;;;;;;5010119;28;20026;-86
2022/04/14 08:15:30;;;;;;;9.82;5.25;;;;;;;;;;5012085;28;20040;-86
2022/04/14 08:17:56;;;;;;;11.82;4.63;;;;;;;;;;5010713;28;20461;-85
2022/04/14 08:20:21;;;;;;;14.52;5.20;;;;;;;;;;5011823;28;20042;-85
2022/04/14 08:22:47;;;;;;;11.85;5.60;;;;;;;;;;5012019;28;20624;-85
2022/04/14 08:25:13;;;;;;;10.73;4.93;;;;;;;;;;5011893;28;20400;-84
2022/04/14 08:27:38;;;;;;;11.30;5.40;;;;;;;;;;5011950;28;20030;-86
2022/04/14 08:30:04;;;;;;;13.68;5.10;;;;;;;;;;5014508;28;20117;-86
2022/04/14 08:32:29;;;;;;;12.68;4.75;;;;;;;;;;5014776;28;20413;-86
2022/04/14 08:34:55;;;;;;;12.55;5.20;;;;;;;;;;5015979;28;20502;-89
2022/04/14 08:37:20;;;;;;;12.68;4.97;;;;;;;;;;5024949;28;20034;-91
2022/04/14 08:39:45;;;;;;;12.35;4.70;;;;;;;;;;5036860;28;20018;-89
2022/04/14 08:42:13;;;;;;;9.18;5.03;;;;;;;;;;5036299;28;20014;-90
2022/04/14 08:44:43;;;;;;;7.68;4.43;;;;;;;;;;5037190;28;20017;-90
2022/04/14 08:47:08;;;;;;;8.88;4.13;;;;;;;;;;5034995;28;20025;-90
2022/04/14 08:49:34;;;;;;;8.30;4.10;;;;;;;;;;5030557;28;20022;-90
2022/04/14 08:52:00;;;;;;;11.82;4.20;;;;;;;;;;5031326;28;20524;-90
2022/04/14 08:54:26;;;;;;;11.73;4.18;;;;;;;;;;5026227;28;20048;-87
2022/04/14 08:56:58;;;;;;;6.40;3.70;;;;;;;;;;5024146;28;20026;-87
2022/04/14 08:59:24;;;;;;;11.32;5.40;;;;;;;;;;5016153;28;20109;-85
2022/04/14 09:01:49;;;;;;;9.38;3.88;;;;;;;;;;5015845;28;20041;-84
2022/04/14 09:04:14;;;;;;;6.40;3.38;;;;;;;;;;5014427;28;20021;-84
2022/04/14 09:06:40;;;;;;;8.82;3.35;;;;;;;;;;5014297;28;20434;-85
2022/04/14 09:09:05;;;;;;;8.43;4.10;;;;;;;;;;5015027;28;20041;-85
2022/04/14 09:11:34;;;;;;;8.30;4.00;;;;;;;;;;5016066;28;20022;-85
2022/04/14 09:14:00;;;;;;;10.23;3.15;;;;;;;;;;5014227;28;20067;-84
2022/04/14 09:16:26;;;;;;;11.68;3.83;;;;;;;;;;5013127;28;20026;-83
2022/04/14 09:18:53;;;;;;;8.63;4.18;;;;;;;;;;5014454;28;20021;-85
2022/04/14 09:21:19;;;;;;;7.88;3.22;;;;;;;;;;5013810;28;20026;-84
2022/04/14 09:23:53;;;;;;;12.77;3.55;;;;;;;;;;5014211;28;20389;-85
2022/04/14 09:26:23;;;;;;;6.28;2.92;;;;;;;;;;5015081;28;20058;-86
2022/04/14 09:29:10;;;;;;;7.88;3.88;;;;;;;;;;5013776;28;20028;-85
2022/04/14 09:31:48;;;;;;;7.20;3.47;;;;;;;;;;5016525;28;20073;-86
2022/04/14 09:34:35;;;;;;;;;;;;;;;;;;5016135;28;20260;-85
2022/04/14 09:37:09;;;;;;;5.10;3.25;;;;;;;;;;5014386;28;20280;-85
2022/04/14 09:39:50;;;;;;;5.53;2.72;;;;;;;;;;5013433;28;20056;-86
2022/04/14 09:42:16;;;;;;;9.07;2.85;;;;;;;;;;5013217;28;20460;-86
2022/04/14 09:44:41;;;;;;;7.63;2.80;;;;;;;;;;5013823;28;20093;-85
2022/04/14 09:47:06;;;;;;;5.40;2.78;;;;;;;;;;5018462;28;20401;-86
2022/04/14 09:49:31;;;;;;;5.43;2.40;;;;;;;;;;5014251;28;20082;-86
2022/04/14 09:52:06;;;;;;;4.88;2.45;;;;;;;;;;5013950;28;20017;-85
2022/04/14 09:54:31;;;;;;;5.90;1.65;;;;;;;;;;5015597;28;20081;-87
2022/04/14 09:56:56;;;;;;;5.32;2.08;;;;;;;;;;5013492;28;20195;-86
2022/04/14 09:59:23;;;;;;;5.25;1.77;;;;;;;;;;5014993;28;20009;-86
2022/04/14 10:01:48;;;;;;;4.95;1.50;;;;;;;;;;5014340;28;20018;-85
2022/04/14 10:04:30;;;;;;;7.70;2.15;;;;;;;;;;5015935;28;20018;-87
2022/04/14 10:07:09;;;;;;;6.68;2.15;;;;;;;;;;5015472;28;20025;-86
2022/04/14 10:09:35;;;;;;;3.80;1.90;;;;;;;;;;5014986;28;20049;-86
2022/04/14 10:12:04;;;;;;;3.92;1.60;;;;;;;;;;5013393;28;20026;-86
2022/04/14 10:14:29;;;;;;;5.72;1.70;;;;;;;;;;5015101;28;20037;-86
2022/04/14 10:16:57;;;;;;;11.85;2.08;;;;;;;;;;5014355;28;20030;-85
2022/04/14 10:19:22;;;;;;;5.70;1.80;;;;;;;;;;5014965;28;20022;-86
2022/04/14 10:21:48;;;;;;;3.90;1.25;;;;;;;;;;5013115;28;20667;-85
2022/04/14 10:24:14;;;;;;;2.97;1.33;;;;;;;;;;5014587;28;20064;-86
2022/04/14 10:26:40;;;;;;;4.75;1.40;;;;;;;;;;5013641;28;20112;-86
2022/04/14 10:29:06;;;;;;;4.50;1.27;;;;;;;;;;5013279;28;20072;-86
2022/04/14 10:31:37;;;;;;;4.45;1.65;;;;;;;;;;5014741;28;20050;-86
2022/04/14 10:34:04;;;;;;;5.07;1.95;;;;;;;;;;5013149;28;20034;-86
2022/04/14 10:36:31;;;;;;;9.57;1.90;;;;;;;;;;5015032;28;20026;-86
2022/04/14 10:39:02;;;;;;;4.10;1.40;;;;;;;;;;5013932;28;20109;-86
2022/04/14 10:41:28;;;;;;;6.60;1.80;;;;;;;;;;5013535;28;20126;-86
2022/04/14 10:43:58;;;;;;;4.60;1.40;;;;;;;;;;5012784;28;20037;-85
2022/04/14 10:46:36;;;;;;;4.90;1.67;;;;;;;;;;5016122;28;20026;-85
2022/04/14 10:49:11;;;;;;;3.63;1.73;;;;;;;;;;5013650;28;20080;-86
2022/04/14 10:51:37;;;;;;;3.88;1.67;;;;;;;;;;5012896;28;20083;-85
2022/04/14 10:54:04;;;;;;;6.13;1.85;;;;;;;;;;5015145;28;20100;-86
2022/04/14 10:56:32;;;;;;;5.35;1.90;;;;;;;;;;5012484;28;20025;-86
2022/04/14 10:58:57;;;;;;;6.55;2.10;;;;;;;;;;5021481;28;20057;-86
2022/04/14 11:01:50;;;;;;;5.55;2.05;;;;;;;;;;5014562;28;20046;-86
2022/04/14 11:04:36;;;;;;;6.35;1.40;;;;;;;;;;5018111;28;20049;-90
2022/04/14 11:07:18;;;;;;;4.47;1.70;;;;;;;;;;5008419;28;20026;-90
2022/04/14 11:09:48;;;;;;;4.10;1.70;;;;;;;;;;5018072;28;20034;-89
2022/04/14 11:12:13;;;;;;;5.43;1.77;;;;;;;;;;5018731;28;20014;-90
2022/04/14 11:14:45;;;;;;;4.25;1.50;;;;;;;;;;5017040;28;20165;-90
2022/04/14 11:17:36;;;;;;;5.80;1.50;;;;;;;;;;5023204;28;20497;-89
2022/04/14 11:20:16;;;;;;;4.85;1.38;;;;;;;;;;5022295;28;20010;-89
2022/04/14 11:23:04;;;;;;;5.32;2.58;;;;;;;;;;5023401;28;20095;-90
2022/04/14 11:25:38;;;;;;;9.60;1.52;;;;;;;;;;5021100;28;20025;-89
2022/04/14 11:28:17;;;;;;;3.00;1.20;;;;;;;;;;5033464;28;20022;-88
2022/04/14 11:30:46;;;;;;;6.05;1.60;;;;;;;;;;5036689;28;20014;-88
2022/04/14 11:36:11;;;;;;;5.72;1.60;;;;;;;;;;5035787;28;19912;-95
2022/04/14 11:38:55;;;;;;;7.88;1.55;;;;;;;;;;5009019;28;20053;-92
2022/04/14 11:41:30;;;;;;;5.35;1.75;;;;;;;;;;5000459;28;20026;-92
2022/04/14 11:43:55;;;;;;;5.03;1.48;;;;;;;;;;5000080;28;20049;-91
2022/04/14 11:46:22;;;;;;;5.65;1.85;;;;;;;;;;5000065;28;20080;-90
2022/04/14 11:48:48;;;;;;;3.63;1.65;;;;;;;;;;4998787;28;20022;-91
2022/04/14 11:51:15;;;;;;;5.20;1.55;;;;;;;;;;4997882;28;20064;-91
2022/04/14 11:53:40;;;;;;;4.18;1.52;;;;;;;;;;4998823;28;20068;-92
2022/04/14 11:56:14;;;;;;;4.97;1.87;;;;;;;;;;4999966;28;20034;-91
2022/04/14 11:58:39;;;;;;;8.52;1.95;;;;;;;;;;4998419;28;20688;-91
2022/04/14 12:01:06;;;;;;;4.18;1.42;;;;;;;;;;4998062;28;20018;-92
2022/04/14 12:03:31;;;;;;;9.20;1.90;;;;;;;;;;4999353;28;20057;-92
2022/04/14 12:06:02;;;;;;;5.30;2.03;;;;;;;;;;5002882;28;20022;-91
2022/04/14 12:08:31;;;;;;;8.70;1.85;;;;;;;;;;5002419;28;20032;-91
2022/04/14 12:11:00;;;;;;;4.80;2.00;;;;;;;;;;5019124;28;20018;-90
2022/04/14 12:13:34;;;;;;;8.40;1.83;;;;;;;;;;5001674;28;20266;-92
2022/04/14 12:16:00;;;;;;;3.97;1.70;;;;;;;;;;5002999;28;20022;-90
2022/04/14 12:18:25;;;;;;;5.68;2.10;;;;;;;;;;5002420;28;20053;-90
2022/04/14 12:20:50;;;;;;;4.15;2.17;;;;;;;;;;5002368;28;20021;-90
2022/04/14 12:23:22;;;;;;;6.75;1.92;;;;;;;;;;5001361;28;20025;-92
2022/04/14 12:25:47;;;;;;;4.20;1.85;;;;;;;;;;5003888;28;20505;-90
2022/04/14 12:28:15;;;;;;;3.67;1.60;;;;;;;;;;5020383;28;20095;-90
2022/04/14 12:30:41;;;;;;;5.60;1.90;;;;;;;;;;5001517;28;20030;-89
2022/04/14 12:33:07;;;;;;;3.78;1.80;;;;;;;;;;5002040;28;20077;-89
2022/04/14 12:35:35;;;;;;;4.55;2.00;;;;;;;;;;5001677;28;20045;-89
2022/04/14 12:38:16;;;;;;;5.10;1.98;;;;;;;;;;5001251;28;20061;-90
2022/04/14 12:41:01;;;;;;;4.05;1.88;;;;;;;;;;5002131;28;20085;-89
2022/04/14 12:43:28;;;;;;;5.72;2.20;;;;;;;;;;5000280;28;20038;-89
2022/04/14 12:45:54;;;;;;;4.20;2.35;;;;;;;;;;5000394;28;20171;-89
2022/04/14 12:48:25;;;;;;;5.57;2.78;;;;;;;;;;5000453;28;20611;-91
2022/04/14 12:50:54;;;;;;;6.50;2.40;;;;;;;;;;5001739;28;20030;-89
2022/04/14 12:53:26;;;;;;;5.20;2.10;;;;;;;;;;5017833;28;20026;-91
2022/04/14 12:56:08;;;;;;;6.13;2.78;;;;;;;;;;5017937;28;20533;-92
2022/04/14 12:58:33;;;;;;;6.88;3.17;;;;;;;;;;5000218;28;20036;-91
2022/04/14 13:01:05;;;;;;;7.15;3.10;;;;;;;;;;4999663;28;20025;-92
2022/04/14 13:03:43;;;;;;;5.28;3.28;;;;;;;;;;5000217;28;20026;-90
2022/04/14 13:06:18;;;;;;;6.38;4.00;;;;;;;;;;4999993;28;20022;-92
2022/04/14 13:08:44;;;;;;;8.98;4.10;;;;;;;;;;5001835;28;20037;-92
2022/04/14 13:11:10;;;;;;;8.35;3.70;;;;;;;;;;5001114;28;20022;-91
2022/04/14 13:13:35;;;;;;;9.50;4.90;;;;;;;;;;5013587;23;20037;-73
2022/04/14 13:16:00;;;;;;;6.07;3.53;;;;;;;;;;4991881;28;20062;-73
2022/04/14 13:18:26;;;;;;;7.70;4.68;;;;;;;;;;4977119;28;20030;-72
2022/04/14 13:20:51;;;;;;;6.60;4.40;;;;;;;;;;4994247;28;20010;-71
2022/04/14 13:23:19;;;;;;;7.63;4.85;;;;;;;;;;4994100;28;20490;-73
2022/04/14 13:25:46;;;;;;;8.82;4.47;;;;;;;;;;5013588;28;20113;-72
2022/04/14 13:28:15;;;;;;;7.15;4.28;;;;;;;;;;5013943;28;20029;-72
2022/04/14 13:30:40;;;;;;;8.63;4.88;;;;;;;;;;5014465;28;20108;-72
2022/04/14 13:33:06;;;;;;;8.70;4.35;;;;;;;;;;5013580;28;20470;-72
2022/04/14 13:35:32;;;;;;;7.07;4.32;;;;;;;;;;4995703;28;20026;-72
2022/04/14 13:37:57;;;;;;;7.43;4.80;;;;;;;;;;4995828;28;20061;-72
2022/04/14 13:40:22;;;;;;;7.23;4.20;;;;;;;;;;5013937;28;20022;-72
2022/04/14 13:42:48;;;;;;;7.55;4.22;;;;;;;;;;5013696;28;20326;-71
2022/04/14 13:45:13;;;;;;;7.03;3.50;;;;;;;;;;5013839;28;20022;-71
2022/04/14 13:47:40;;;;;;;6.53;3.65;;;;;;;;;;4996427;28;20637;-72
2022/04/14 13:50:06;;;;;;;6.78;3.70;;;;;;;;;;5013919;28;20033;-71
2022/04/14 13:52:32;;;;;;;7.07;3.60;;;;;;;;;;4996091;28;20022;-71
2022/04/14 13:54:57;;;;;;;7.13;4.40;;;;;;;;;;5013314;28;20026;-72
2022/04/14 13:57:23;;;;;;;7.95;4.20;;;;;;;;;;5013187;28;20067;-72
2022/04/14 13:59:48;;;;;;;6.85;4.70;;;;;;;;;;4995603;28;20061;-71
2022/04/14 14:02:13;;;;;;;10.45;5.35;;;;;;;;;;5013222;28;20110;-72
2022/04/14 14:04:39;;;;;;;7.35;4.68;;;;;;;;;;5012961;28;20358;-72
2022/04/14 14:07:04;;;;;;;8.65;4.53;;;;;;;;;;5013382;28;20030;-74
2022/04/14 14:09:29;;;;;;;8.38;4.88;;;;;;;;;;5013367;28;20449;-73
2022/04/14 14:11:54;;;;;;;11.77;4.60;;;;;;;;;;5012842;28;20457;-72
2022/04/14 14:14:22;;;;;;;10.00;5.00;;;;;;;;;;4995139;28;20752;-72
2022/04/14 14:16:48;;;;;;;8.17;5.03;;;;;;;;;;5013018;28;20029;-73
2022/04/14 14:19:13;;;;;;;6.60;4.85;;;;;;;;;;4994907;28;20128;-71
2022/04/14 14:21:39;;;;;;;9.07;4.97;;;;;;;;;;4995351;28;20050;-72
2022/04/14 14:24:07;;;;;;;8.23;6.00;;;;;;;;;;5012688;28;20072;-71
2022/04/14 14:26:32;;;;;;;9.15;6.13;;;;;;;;;;5012479;28;20018;-71
2022/04/14 14:28:58;;;;;;;9.68;5.75;;;;;;;;;;5012805;28;20044;-71
2022/04/14 14:31:25;;;;;;;7.63;5.00;;;;;;;;;;4995299;28;20108;-70
2022/04/14 14:33:50;;;;;;;8.85;5.20;;;;;;;;;;5012681;28;20080;-71